sensor_id;sensor_type;location;lat;lon;timestamp;temperature;humidity
2062;DHT22;11070;51.336;12.340;2023-11-22T00:02:12;1.90;99.90
2062;DHT22;11070;51.336;12.340;2023-11-22T00:04:38;2.00;99.90
2062;DHT22;11070;51.336;12.340;2023-11-22T00:07:03;2.00;99.90
2062;DHT22;11070;51.336;12.340;2023-11-22T00:09:29;2.00;99.90
2062;DHT22;11070;51.336;12.340;2023-11-22T00:11:55;2.00;99.90
2062;DHT22;11070;51.336;12.340;2023-11-22T00:14:20;2.00;99.90
2062;DHT22;11070;51.336;12.340;2023-11-22T00:16:46;2.00;99.90
2062;DHT22;11070;51.336;12.340;2023-11-22T00:19:13;1.90;99.90
2062;DHT22;11070;51.336;12.340;2023-11-22T00:21:40;1.90;99.90
2062;DHT22;11070;51.336;12.340;2023-11-22T00:24:06;1.90;99.90
2062;DHT22;11070;51.336;12.340;2023-11-22T00:26:32;1.90;99.90
2062;DHT22;11070;51.336;12.340;2023-11-22T00:28:58;1.90;99.90
2062;DHT22;11070;51.336;12.340;2023-11-22T00:31:24;2.00;99.90
2062;DHT22;11070;51.336;12.340;2023-11-22T00:33:50;1.90;99.90
2062;DHT22;11070;51.336;12.340;2023-11-22T00:36:15;1.90;99.90
2062;DHT22;11070;51.336;12.340;2023-11-22T00:38:42;1.90;99.90
2062;DHT22;11070;51.336;12.340;2023-11-22T00:41:07;1.90;99.90
2062;DHT22;11070;51.336;12.340;2023-11-22T00:43:36;1.80;99.90
2062;DHT22;11070;51.336;12.340;2023-11-22T00:46:02;1.80;99.90
2062;DHT22;11070;51.336;12.340;2023-11-22T00:48:28;1.80;99.90
2062;DHT22;11070;51.336;12.340;2023-11-22T00:50:54;1.70;99.90
2062;DHT22;11070;51.336;12.340;2023-11-22T00:53:19;1.70;99.90
2062;DHT22;11070;51.336;12.340;2023-11-22T00:55:45;1.70;99.90
2062;DHT22;11070;51.336;12.340;2023-11-22T00:58:11;1.70;99.90
2062;DHT22;11070;51.336;12.340;2023-11-22T01:00:37;1.70;99.90
2062;DHT22;11070;51.336;12.340;2023-11-22T01:03:03;1.80;99.90
2062;DHT22;11070;51.336;12.340;2023-11-22T01:05:30;1.80;99.90
2062;DHT22;11070;51.336;12.340;2023-11-22T01:07:56;1.70;99.90
2062;DHT22;11070;51.336;12.340;2023-11-22T01:10:22;1.70;99.90
2062;DHT22;11070;51.336;12.340;2023-11-22T01:12:48;1.70;99.90
2062;DHT22;11070;51.336;12.340;2023-11-22T01:15:13;1.80;99.90
2062;DHT22;11070;51.336;12.340;2023-11-22T01:17:39;1.80;99.90
2062;DHT22;11070;51.336;12.340;2023-11-22T01:20:05;1.80;99.90
2062;DHT22;11070;51.336;12.340;2023-11-22T01:22:32;1.80;99.90
2062;DHT22;11070;51.336;12.340;2023-11-22T01:24:58;1.80;99.90
2062;DHT22;11070;51.336;12.340;2023-11-22T01:27:24;1.80;99.90
2062;DHT22;11070;51.336;12.340;2023-11-22T01:29:49;1.80;99.90
2062;DHT22;11070;51.336;12.340;2023-11-22T01:32:15;1.80;99.90
2062;DHT22;11070;51.336;12.340;2023-11-22T01:34:42;1.80;99.90
2062;DHT22;11070;51.336;12.340;2023-11-22T01:37:08;1.80;99.90
2062;DHT22;11070;51.336;12.340;2023-11-22T01:39:33;1.90;99.90
2062;DHT22;11070;51.336;12.340;2023-11-22T01:41:59;1.90;99.90
2062;DHT22;11070;51.336;12.340;2023-11-22T01:44:25;1.90;99.90
2062;DHT22;11070;51.336;12.340;2023-11-22T01:46:52;1.80;99.90
2062;DHT22;11070;51.336;12.340;2023-11-22T01:49:17;1.80;99.90
2062;DHT22;11070;51.336;12.340;2023-11-22T01:51:43;1.80;99.90
2062;DHT22;11070;51.336;12.340;2023-11-22T01:54:11;1.80;99.90
2062;DHT22;11070;51.336;12.340;2023-11-22T01:56:38;1.70;99.90
2062;DHT22;11070;51.336;12.340;2023-11-22T01:59:04;1.60;99.90
2062;DHT22;11070;51.336;12.340;2023-11-22T02:01:30;1.50;99.90
2062;DHT22;11070;51.336;12.340;2023-11-22T02:03:57;1.30;99.90
2062;DHT22;11070;51.336;12.340;2023-11-22T02:06:23;1.20;99.90
2062;DHT22;11070;51.336;12.340;2023-11-22T02:08:49;1.20;99.90
2062;DHT22;11070;51.336;12.340;2023-11-22T02:11:17;1.10;99.90
2062;DHT22;11070;51.336;12.340;2023-11-22T02:13:48;1.10;99.90
2062;DHT22;11070;51.336;12.340;2023-11-22T02:16:19;1.00;99.90
2062;DHT22;11070;51.336;12.340;2023-11-22T02:18:48;0.90;99.90
2062;DHT22;11070;51.336;12.340;2023-11-22T02:21:15;0.80;99.90
2062;DHT22;11070;51.336;12.340;2023-11-22T02:23:41;0.90;99.90
2062;DHT22;11070;51.336;12.340;2023-11-22T02:26:07;0.80;99.90
2062;DHT22;11070;51.336;12.340;2023-11-22T02:28:33;0.70;99.90
2062;DHT22;11070;51.336;12.340;2023-11-22T02:30:59;0.60;99.90
2062;DHT22;11070;51.336;12.340;2023-11-22T02:33:25;0.60;99.90
2062;DHT22;11070;51.336;12.340;2023-11-22T02:35:50;0.60;99.90
2062;DHT22;11070;51.336;12.340;2023-11-22T02:38:16;0.60;99.90
2062;DHT22;11070;51.336;12.340;2023-11-22T02:40:43;0.50;99.90
2062;DHT22;11070;51.336;12.340;2023-11-22T02:43:09;0.50;99.90
2062;DHT22;11070;51.336;12.340;2023-11-22T02:45:36;0.50;99.90
2062;DHT22;11070;51.336;12.340;2023-11-22T02:48:02;0.40;99.90
2062;DHT22;11070;51.336;12.340;2023-11-22T02:50:29;0.30;99.90
2062;DHT22;11070;51.336;12.340;2023-11-22T02:52:57;0.30;99.90
2062;DHT22;11070;51.336;12.340;2023-11-22T02:55:24;0.30;99.90
2062;DHT22;11070;51.336;12.340;2023-11-22T02:57:50;0.30;99.90
2062;DHT22;11070;51.336;12.340;2023-11-22T03:00:17;0.20;99.90
2062;DHT22;11070;51.336;12.340;2023-11-22T03:02:45;0.20;99.90
2062;DHT22;11070;51.336;12.340;2023-11-22T03:05:12;0.10;99.90
2062;DHT22;11070;51.336;12.340;2023-11-22T03:07:43;0.10;99.90
2062;DHT22;11070;51.336;12.340;2023-11-22T03:10:09;0.10;99.90
2062;DHT22;11070;51.336;12.340;2023-11-22T03:12:35;0.10;99.90
2062;DHT22;11070;51.336;12.340;2023-11-22T03:15:00;0.00;99.90
2062;DHT22;11070;51.336;12.340;2023-11-22T03:17:30;0.00;99.90
2062;DHT22;11070;51.336;12.340;2023-11-22T03:19:56;0.00;99.90
2062;DHT22;11070;51.336;12.340;2023-11-22T03:22:26;0.00;99.90
2062;DHT22;11070;51.336;12.340;2023-11-22T03:24:55;-0.10;99.90
2062;DHT22;11070;51.336;12.340;2023-11-22T03:27:21;-0.10;99.90
2062;DHT22;11070;51.336;12.340;2023-11-22T03:29:48;-0.20;99.90
2062;DHT22;11070;51.336;12.340;2023-11-22T03:32:13;-0.10;99.90
2062;DHT22;11070;51.336;12.340;2023-11-22T03:34:39;-0.20;99.90
2062;DHT22;11070;51.336;12.340;2023-11-22T03:37:04;-0.20;99.90
2062;DHT22;11070;51.336;12.340;2023-11-22T03:39:30;-0.20;99.90
2062;DHT22;11070;51.336;12.340;2023-11-22T03:41:56;-0.20;99.90
2062;DHT22;11070;51.336;12.340;2023-11-22T03:44:22;-0.10;99.90
2062;DHT22;11070;51.336;12.340;2023-11-22T03:46:48;-0.20;99.90
2062;DHT22;11070;51.336;12.340;2023-11-22T03:49:14;-0.20;99.90
2062;DHT22;11070;51.336;12.340;2023-11-22T03:51:42;-0.30;99.90
2062;DHT22;11070;51.336;12.340;2023-11-22T03:54:08;-0.30;99.90
2062;DHT22;11070;51.336;12.340;2023-11-22T03:56:35;-0.30;99.90
2062;DHT22;11070;51.336;12.340;2023-11-22T03:59:01;-0.30;99.90
2062;DHT22;11070;51.336;12.340;2023-11-22T04:01:26;-0.30;99.90
2062;DHT22;11070;51.336;12.340;2023-11-22T04:03:52;-0.30;99.90
2062;DHT22;11070;51.336;12.340;2023-11-22T04:06:19;-0.30;99.90
2062;DHT22;11070;51.336;12.340;2023-11-22T04:08:46;-0.40;99.90
2062;DHT22;11070;51.336;12.340;2023-11-22T04:11:15;-0.40;99.90
2062;DHT22;11070;51.336;12.340;2023-11-22T04:13:41;-0.40;99.90
2062;DHT22;11070;51.336;12.340;2023-11-22T04:16:07;-0.40;99.90
2062;DHT22;11070;51.336;12.340;2023-11-22T04:18:41;-0.40;99.90
2062;DHT22;11070;51.336;12.340;2023-11-22T04:21:07;-0.50;99.90
2062;DHT22;11070;51.336;12.340;2023-11-22T04:23:33;-0.50;99.90
2062;DHT22;11070;51.336;12.340;2023-11-22T04:25:59;-0.50;99.90
2062;DHT22;11070;51.336;12.340;2023-11-22T04:28:26;-0.50;99.90
2062;DHT22;11070;51.336;12.340;2023-11-22T04:30:53;-0.50;99.90
2062;DHT22;11070;51.336;12.340;2023-11-22T04:33:19;-0.50;99.90
2062;DHT22;11070;51.336;12.340;2023-11-22T04:35:44;-0.50;99.90
2062;DHT22;11070;51.336;12.340;2023-11-22T04:38:11;-0.50;99.90
2062;DHT22;11070;51.336;12.340;2023-11-22T04:40:37;-0.50;99.90
2062;DHT22;11070;51.336;12.340;2023-11-22T04:43:03;-0.50;99.90
2062;DHT22;11070;51.336;12.340;2023-11-22T04:45:28;-0.60;99.90
2062;DHT22;11070;51.336;12.340;2023-11-22T04:47:54;-0.60;99.90
2062;DHT22;11070;51.336;12.340;2023-11-22T04:50:22;-0.70;99.90
2062;DHT22;11070;51.336;12.340;2023-11-22T04:52:50;-0.70;99.90
2062;DHT22;11070;51.336;12.340;2023-11-22T04:55:15;-0.70;99.90
2062;DHT22;11070;51.336;12.340;2023-11-22T04:57:41;-0.70;99.90
2062;DHT22;11070;51.336;12.340;2023-11-22T05:00:08;-0.70;99.90
2062;DHT22;11070;51.336;12.340;2023-11-22T05:02:34;-0.70;99.90
2062;DHT22;11070;51.336;12.340;2023-11-22T05:05:00;-0.70;99.90
2062;DHT22;11070;51.336;12.340;2023-11-22T05:07:25;-0.80;99.90
2062;DHT22;11070;51.336;12.340;2023-11-22T05:09:51;-0.70;99.90
2062;DHT22;11070;51.336;12.340;2023-11-22T05:12:17;-0.70;99.90
2062;DHT22;11070;51.336;12.340;2023-11-22T05:14:43;-0.80;99.90
2062;DHT22;11070;51.336;12.340;2023-11-22T05:17:10;-0.80;99.90
2062;DHT22;11070;51.336;12.340;2023-11-22T05:19:36;-0.80;99.90
2062;DHT22;11070;51.336;12.340;2023-11-22T05:22:02;-0.90;99.90
2062;DHT22;11070;51.336;12.340;2023-11-22T05:24:28;-0.90;99.90
2062;DHT22;11070;51.336;12.340;2023-11-22T05:26:54;-0.80;99.90
2062;DHT22;11070;51.336;12.340;2023-11-22T05:29:19;-0.90;99.90
2062;DHT22;11070;51.336;12.340;2023-11-22T05:31:45;-0.80;99.90
2062;DHT22;11070;51.336;12.340;2023-11-22T05:34:11;-0.80;99.90
2062;DHT22;11070;51.336;12.340;2023-11-22T05:36:36;-0.80;99.90
2062;DHT22;11070;51.336;12.340;2023-11-22T05:39:02;-0.80;99.90
2062;DHT22;11070;51.336;12.340;2023-11-22T05:41:29;-0.80;99.90
2062;DHT22;11070;51.336;12.340;2023-11-22T05:43:55;-0.80;99.90
2062;DHT22;11070;51.336;12.340;2023-11-22T05:46:23;-0.80;99.90
2062;DHT22;11070;51.336;12.340;2023-11-22T05:48:54;-0.80;99.90
2062;DHT22;11070;51.336;12.340;2023-11-22T05:51:20;-0.80;99.90
2062;DHT22;11070;51.336;12.340;2023-11-22T05:53:46;-0.70;99.90
2062;DHT22;11070;51.336;12.340;2023-11-22T05:56:12;-0.70;99.90
2062;DHT22;11070;51.336;12.340;2023-11-22T05:58:38;-0.70;99.90
2062;DHT22;11070;51.336;12.340;2023-11-22T06:01:05;-0.70;99.90
2062;DHT22;11070;51.336;12.340;2023-11-22T06:03:31;-0.60;99.90
2062;DHT22;11070;51.336;12.340;2023-11-22T06:05:57;-0.60;99.90
2062;DHT22;11070;51.336;12.340;2023-11-22T06:08:23;-0.70;99.90
2062;DHT22;11070;51.336;12.340;2023-11-22T06:10:49;-0.70;99.90
2062;DHT22;11070;51.336;12.340;2023-11-22T06:13:15;-0.60;99.90
2062;DHT22;11070;51.336;12.340;2023-11-22T06:15:41;-0.70;99.90
2062;DHT22;11070;51.336;12.340;2023-11-22T06:18:07;-0.70;99.90
2062;DHT22;11070;51.336;12.340;2023-11-22T06:20:32;-0.70;99.90
2062;DHT22;11070;51.336;12.340;2023-11-22T06:22:58;-0.70;99.90
2062;DHT22;11070;51.336;12.340;2023-11-22T06:25:24;-0.70;99.90
2062;DHT22;11070;51.336;12.340;2023-11-22T06:27:50;-0.70;99.90
2062;DHT22;11070;51.336;12.340;2023-11-22T06:30:16;-0.70;99.90
2062;DHT22;11070;51.336;12.340;2023-11-22T06:32:42;-0.70;99.90
2062;DHT22;11070;51.336;12.340;2023-11-22T06:35:09;-0.70;99.90
2062;DHT22;11070;51.336;12.340;2023-11-22T06:37:35;-0.70;99.90
2062;DHT22;11070;51.336;12.340;2023-11-22T06:40:01;-0.60;99.90
2062;DHT22;11070;51.336;12.340;2023-11-22T06:42:27;-0.60;99.90
2062;DHT22;11070;51.336;12.340;2023-11-22T06:44:53;-0.60;99.90
2062;DHT22;11070;51.336;12.340;2023-11-22T06:47:19;-0.50;99.90
2062;DHT22;11070;51.336;12.340;2023-11-22T06:49:45;-0.60;99.90
2062;DHT22;11070;51.336;12.340;2023-11-22T06:52:11;-0.60;99.90
2062;DHT22;11070;51.336;12.340;2023-11-22T06:54:38;-0.50;99.90
2062;DHT22;11070;51.336;12.340;2023-11-22T06:57:03;-0.60;99.90
2062;DHT22;11070;51.336;12.340;2023-11-22T06:59:29;-0.60;99.90
2062;DHT22;11070;51.336;12.340;2023-11-22T07:01:55;-0.50;99.90
2062;DHT22;11070;51.336;12.340;2023-11-22T07:04:23;-0.50;99.90
2062;DHT22;11070;51.336;12.340;2023-11-22T07:06:49;-0.50;99.90
2062;DHT22;11070;51.336;12.340;2023-11-22T07:09:15;-0.60;99.90
2062;DHT22;11070;51.336;12.340;2023-11-22T07:11:41;-0.60;99.90
2062;DHT22;11070;51.336;12.340;2023-11-22T07:14:09;-0.70;99.90
2062;DHT22;11070;51.336;12.340;2023-11-22T07:16:35;-0.70;99.90
2062;DHT22;11070;51.336;12.340;2023-11-22T07:19:01;-0.70;99.90
2062;DHT22;11070;51.336;12.340;2023-11-22T07:21:29;-0.60;99.90
2062;DHT22;11070;51.336;12.340;2023-11-22T07:23:55;-0.70;99.90
2062;DHT22;11070;51.336;12.340;2023-11-22T07:26:21;-0.60;99.90
2062;DHT22;11070;51.336;12.340;2023-11-22T07:28:47;-0.50;99.90
2062;DHT22;11070;51.336;12.340;2023-11-22T07:31:13;-0.50;99.90
2062;DHT22;11070;51.336;12.340;2023-11-22T07:33:39;-0.40;99.90
2062;DHT22;11070;51.336;12.340;2023-11-22T07:36:05;-0.30;99.90
2062;DHT22;11070;51.336;12.340;2023-11-22T07:38:31;-0.40;99.90
2062;DHT22;11070;51.336;12.340;2023-11-22T07:40:58;-0.30;99.90
2062;DHT22;11070;51.336;12.340;2023-11-22T07:43:23;-0.20;99.90
2062;DHT22;11070;51.336;12.340;2023-11-22T07:45:49;-0.20;99.90
2062;DHT22;11070;51.336;12.340;2023-11-22T07:48:16;-0.20;99.90
2062;DHT22;11070;51.336;12.340;2023-11-22T07:50:42;-0.20;99.90
2062;DHT22;11070;51.336;12.340;2023-11-22T07:53:09;-0.30;99.90
2062;DHT22;11070;51.336;12.340;2023-11-22T07:55:37;-0.20;99.90
2062;DHT22;11070;51.336;12.340;2023-11-22T07:58:03;-0.30;99.90
2062;DHT22;11070;51.336;12.340;2023-11-22T08:00:32;-0.30;99.90
2062;DHT22;11070;51.336;12.340;2023-11-22T08:03:02;-0.20;99.90
2062;DHT22;11070;51.336;12.340;2023-11-22T08:05:31;-0.20;99.90
2062;DHT22;11070;51.336;12.340;2023-11-22T08:08:05;-0.20;99.90
2062;DHT22;11070;51.336;12.340;2023-11-22T08:10:36;-0.10;99.90
2062;DHT22;11070;51.336;12.340;2023-11-22T08:13:03;-0.20;99.90
2062;DHT22;11070;51.336;12.340;2023-11-22T08:15:29;-0.20;99.90
2062;DHT22;11070;51.336;12.340;2023-11-22T08:17:57;-0.30;99.90
2062;DHT22;11070;51.336;12.340;2023-11-22T08:20:23;-0.20;99.90
2062;DHT22;11070;51.336;12.340;2023-11-22T08:22:48;-0.20;99.90
2062;DHT22;11070;51.336;12.340;2023-11-22T08:25:17;-0.20;99.90
2062;DHT22;11070;51.336;12.340;2023-11-22T08:27:43;-0.30;99.90
2062;DHT22;11070;51.336;12.340;2023-11-22T08:30:09;-0.30;99.90
2062;DHT22;11070;51.336;12.340;2023-11-22T08:32:39;-0.20;99.90
2062;DHT22;11070;51.336;12.340;2023-11-22T08:35:07;-0.20;99.90
2062;DHT22;11070;51.336;12.340;2023-11-22T08:37:34;-0.20;99.90
2062;DHT22;11070;51.336;12.340;2023-11-22T08:40:02;-0.10;99.90
2062;DHT22;11070;51.336;12.340;2023-11-22T08:42:28;0.00;99.90
2062;DHT22;11070;51.336;12.340;2023-11-22T08:44:53;0.00;99.90
2062;DHT22;11070;51.336;12.340;2023-11-22T08:47:19;0.00;99.90
2062;DHT22;11070;51.336;12.340;2023-11-22T08:49:44;0.00;99.90
2062;DHT22;11070;51.336;12.340;2023-11-22T08:52:10;0.10;99.90
2062;DHT22;11070;51.336;12.340;2023-11-22T08:54:36;0.20;99.90
2062;DHT22;11070;51.336;12.340;2023-11-22T08:57:02;0.40;99.90
2062;DHT22;11070;51.336;12.340;2023-11-22T08:59:28;0.70;99.90
2062;DHT22;11070;51.336;12.340;2023-11-22T09:01:53;0.90;99.90
2062;DHT22;11070;51.336;12.340;2023-11-22T09:04:19;1.10;99.90
2062;DHT22;11070;51.336;12.340;2023-11-22T09:06:45;1.50;99.90
2062;DHT22;11070;51.336;12.340;2023-11-22T09:09:13;2.00;99.90
2062;DHT22;11070;51.336;12.340;2023-11-22T09:11:41;2.10;99.90
2062;DHT22;11070;51.336;12.340;2023-11-22T09:14:06;2.20;99.90
2062;DHT22;11070;51.336;12.340;2023-11-22T09:16:38;2.20;99.90
2062;DHT22;11070;51.336;12.340;2023-11-22T09:19:05;2.20;99.90
2062;DHT22;11070;51.336;12.340;2023-11-22T09:21:32;2.50;99.90
2062;DHT22;11070;51.336;12.340;2023-11-22T09:23:58;2.70;99.90
2062;DHT22;11070;51.336;12.340;2023-11-22T09:26:24;2.70;99.90
2062;DHT22;11070;51.336;12.340;2023-11-22T09:28:50;2.60;99.90
2062;DHT22;11070;51.336;12.340;2023-11-22T09:31:16;2.50;99.90
2062;DHT22;11070;51.336;12.340;2023-11-22T09:33:45;2.40;99.90
2062;DHT22;11070;51.336;12.340;2023-11-22T09:36:12;2.40;99.90
2062;DHT22;11070;51.336;12.340;2023-11-22T09:38:38;2.40;99.90
2062;DHT22;11070;51.336;12.340;2023-11-22T09:41:04;2.40;99.90
2062;DHT22;11070;51.336;12.340;2023-11-22T09:43:30;2.40;99.90
2062;DHT22;11070;51.336;12.340;2023-11-22T09:45:56;2.60;99.90
2062;DHT22;11070;51.336;12.340;2023-11-22T09:48:24;2.90;99.90
2062;DHT22;11070;51.336;12.340;2023-11-22T09:56:17;3.20;99.90
2062;DHT22;11070;51.336;12.340;2023-11-22T09:58:44;3.40;99.90
2062;DHT22;11070;51.336;12.340;2023-11-22T10:01:13;6.50;99.90
2062;DHT22;11070;51.336;12.340;2023-11-22T10:03:40;6.80;99.90
2062;DHT22;11070;51.336;12.340;2023-11-22T10:06:06;8.90;91.70
2062;DHT22;11070;51.336;12.340;2023-11-22T10:08:32;11.50;72.80
2062;DHT22;11070;51.336;12.340;2023-11-22T10:10:59;11.60;71.80
2062;DHT22;11070;51.336;12.340;2023-11-22T10:13:25;13.40;64.80
2062;DHT22;11070;51.336;12.340;2023-11-22T10:15:52;14.40;58.80
2062;DHT22;11070;51.336;12.340;2023-11-22T10:18:20;16.30;53.60
2062;DHT22;11070;51.336;12.340;2023-11-22T10:20:48;15.70;52.20
2062;DHT22;11070;51.336;12.340;2023-11-22T10:23:15;16.30;51.40
2062;DHT22;11070;51.336;12.340;2023-11-22T10:25:48;15.70;50.80
2062;DHT22;11070;51.336;12.340;2023-11-22T10:28:19;13.20;51.40
2062;DHT22;11070;51.336;12.340;2023-11-22T10:30:49;9.80;55.90
2062;DHT22;11070;51.336;12.340;2023-11-22T10:33:18;7.60;62.50
2062;DHT22;11070;51.336;12.340;2023-11-22T10:35:47;7.30;68.80
2062;DHT22;11070;51.336;12.340;2023-11-22T10:38:20;7.40;69.20
2062;DHT22;11070;51.336;12.340;2023-11-22T10:40:46;7.20;70.40
2062;DHT22;11070;51.336;12.340;2023-11-22T10:43:14;6.90;70.50
2062;DHT22;11070;51.336;12.340;2023-11-22T10:45:41;6.70;73.40
2062;DHT22;11070;51.336;12.340;2023-11-22T10:48:14;6.30;74.80
2062;DHT22;11070;51.336;12.340;2023-11-22T10:50:44;6.20;77.30
2062;DHT22;11070;51.336;12.340;2023-11-22T10:53:12;6.00;78.90
2062;DHT22;11070;51.336;12.340;2023-11-22T10:55:46;6.20;80.00
2062;DHT22;11070;51.336;12.340;2023-11-22T10:58:14;6.30;80.00
2062;DHT22;11070;51.336;12.340;2023-11-22T11:00:42;6.40;78.40
2062;DHT22;11070;51.336;12.340;2023-11-22T11:03:13;6.40;79.20
2062;DHT22;11070;51.336;12.340;2023-11-22T11:05:43;6.60;79.30
2062;DHT22;11070;51.336;12.340;2023-11-22T11:08:14;6.80;79.60
2062;DHT22;11070;51.336;12.340;2023-11-22T11:10:43;7.20;77.00
2062;DHT22;11070;51.336;12.340;2023-11-22T11:13:10;6.90;76.00
2062;DHT22;11070;51.336;12.340;2023-11-22T11:15:40;6.30;78.20
2062;DHT22;11070;51.336;12.340;2023-11-22T11:18:11;5.90;79.20
2062;DHT22;11070;51.336;12.340;2023-11-22T11:23:23;5.60;81.80
2062;DHT22;11070;51.336;12.340;2023-11-22T11:25:57;5.60;82.30
2062;DHT22;11070;51.336;12.340;2023-11-22T11:28:25;5.20;83.30
2062;DHT22;11070;51.336;12.340;2023-11-22T11:30:52;5.00;84.70
2062;DHT22;11070;51.336;12.340;2023-11-22T11:33:33;4.90;88.10
2062;DHT22;11070;51.336;12.340;2023-11-22T11:36:02;4.80;88.80
2062;DHT22;11070;51.336;12.340;2023-11-22T11:38:35;4.60;90.50
2062;DHT22;11070;51.336;12.340;2023-11-22T11:41:11;4.40;91.80
2062;DHT22;11070;51.336;12.340;2023-11-22T11:43:45;4.20;92.20
2062;DHT22;11070;51.336;12.340;2023-11-22T11:46:12;4.00;92.80
2062;DHT22;11070;51.336;12.340;2023-11-22T11:48:45;3.60;94.10
2062;DHT22;11070;51.336;12.340;2023-11-22T11:51:25;3.50;97.60
2062;DHT22;11070;51.336;12.340;2023-11-22T11:53:51;3.50;98.60
2062;DHT22;11070;51.336;12.340;2023-11-22T11:56:17;3.50;99.90
2062;DHT22;11070;51.336;12.340;2023-11-22T11:58:44;3.60;99.60
2062;DHT22;11070;51.336;12.340;2023-11-22T12:01:12;3.50;99.90
2062;DHT22;11070;51.336;12.340;2023-11-22T12:03:38;3.50;99.90
2062;DHT22;11070;51.336;12.340;2023-11-22T12:06:05;3.40;99.90
2062;DHT22;11070;51.336;12.340;2023-11-22T12:08:31;3.30;99.90
2062;DHT22;11070;51.336;12.340;2023-11-22T12:11:05;3.20;99.90
2062;DHT22;11070;51.336;12.340;2023-11-22T12:13:34;3.20;99.90
2062;DHT22;11070;51.336;12.340;2023-11-22T12:16:02;3.20;99.90
2062;DHT22;11070;51.336;12.340;2023-11-22T12:18:29;3.00;99.90
2062;DHT22;11070;51.336;12.340;2023-11-22T12:20:58;2.80;99.90
2062;DHT22;11070;51.336;12.340;2023-11-22T12:23:28;2.70;99.90
2062;DHT22;11070;51.336;12.340;2023-11-22T12:25:55;2.70;99.90
2062;DHT22;11070;51.336;12.340;2023-11-22T12:28:27;2.70;99.90
2062;DHT22;11070;51.336;12.340;2023-11-22T12:30:53;2.30;99.90
2062;DHT22;11070;51.336;12.340;2023-11-22T12:33:19;2.20;99.90
2062;DHT22;11070;51.336;12.340;2023-11-22T12:35:46;2.20;99.90
2062;DHT22;11070;51.336;12.340;2023-11-22T12:38:12;2.10;99.90
2062;DHT22;11070;51.336;12.340;2023-11-22T12:40:43;2.00;99.90
2062;DHT22;11070;51.336;12.340;2023-11-22T12:43:09;1.80;99.90
2062;DHT22;11070;51.336;12.340;2023-11-22T12:45:39;1.90;99.90
2062;DHT22;11070;51.336;12.340;2023-11-22T12:48:25;2.10;99.90
2062;DHT22;11070;51.336;12.340;2023-11-22T12:50:52;1.70;99.90
2062;DHT22;11070;51.336;12.340;2023-11-22T12:53:18;1.50;99.90
2062;DHT22;11070;51.336;12.340;2023-11-22T12:55:48;1.30;99.90
2062;DHT22;11070;51.336;12.340;2023-11-22T12:58:20;1.30;99.90
2062;DHT22;11070;51.336;12.340;2023-11-22T13:00:47;1.20;99.90
2062;DHT22;11070;51.336;12.340;2023-11-22T13:03:13;1.10;99.90
2062;DHT22;11070;51.336;12.340;2023-11-22T13:05:40;1.00;99.90
2062;DHT22;11070;51.336;12.340;2023-11-22T13:08:09;1.00;99.90
2062;DHT22;11070;51.336;12.340;2023-11-22T13:10:45;1.10;99.90
2062;DHT22;11070;51.336;12.340;2023-11-22T13:13:13;1.20;99.90
2062;DHT22;11070;51.336;12.340;2023-11-22T13:15:39;1.30;99.90
2062;DHT22;11070;51.336;12.340;2023-11-22T13:18:08;1.20;99.90
2062;DHT22;11070;51.336;12.340;2023-11-22T13:20:34;1.30;99.90
2062;DHT22;11070;51.336;12.340;2023-11-22T13:23:00;1.50;99.90
2062;DHT22;11070;51.336;12.340;2023-11-22T13:25:28;1.80;99.90
2062;DHT22;11070;51.336;12.340;2023-11-22T13:27:53;2.20;99.90
2062;DHT22;11070;51.336;12.340;2023-11-22T13:30:22;2.40;99.90
2062;DHT22;11070;51.336;12.340;2023-11-22T13:32:52;2.50;99.90
2062;DHT22;11070;51.336;12.340;2023-11-22T13:35:19;2.50;99.90
2062;DHT22;11070;51.336;12.340;2023-11-22T13:37:47;2.60;99.90
2062;DHT22;11070;51.336;12.340;2023-11-22T13:40:15;2.70;99.90
2062;DHT22;11070;51.336;12.340;2023-11-22T13:42:45;2.80;99.90
2062;DHT22;11070;51.336;12.340;2023-11-22T13:45:12;2.80;99.90
2062;DHT22;11070;51.336;12.340;2023-11-22T13:47:47;2.80;99.90
2062;DHT22;11070;51.336;12.340;2023-11-22T13:50:22;2.50;99.90
2062;DHT22;11070;51.336;12.340;2023-11-22T13:52:49;2.40;99.90
2062;DHT22;11070;51.336;12.340;2023-11-22T13:55:15;2.00;99.90
2062;DHT22;11070;51.336;12.340;2023-11-22T13:57:43;1.40;99.90
2062;DHT22;11070;51.336;12.340;2023-11-22T14:00:09;1.30;99.90
2062;DHT22;11070;51.336;12.340;2023-11-22T14:02:40;1.20;99.90
2062;DHT22;11070;51.336;12.340;2023-11-22T14:05:08;1.10;99.90
2062;DHT22;11070;51.336;12.340;2023-11-22T14:07:38;0.80;99.90
2062;DHT22;11070;51.336;12.340;2023-11-22T14:10:05;0.80;99.90
2062;DHT22;11070;51.336;12.340;2023-11-22T14:12:32;0.80;99.90
2062;DHT22;11070;51.336;12.340;2023-11-22T14:14:58;0.70;99.90
2062;DHT22;11070;51.336;12.340;2023-11-22T14:17:25;0.60;99.90
2062;DHT22;11070;51.336;12.340;2023-11-22T14:19:54;0.50;99.90
2062;DHT22;11070;51.336;12.340;2023-11-22T14:22:21;0.40;99.90
2062;DHT22;11070;51.336;12.340;2023-11-22T14:24:50;0.40;99.90
2062;DHT22;11070;51.336;12.340;2023-11-22T14:27:19;0.40;99.90
2062;DHT22;11070;51.336;12.340;2023-11-22T14:29:46;0.50;99.90
2062;DHT22;11070;51.336;12.340;2023-11-22T14:32:15;0.40;99.90
2062;DHT22;11070;51.336;12.340;2023-11-22T14:34:41;0.50;99.90
2062;DHT22;11070;51.336;12.340;2023-11-22T14:37:09;0.40;99.90
2062;DHT22;11070;51.336;12.340;2023-11-22T14:39:35;0.40;99.90
2062;DHT22;11070;51.336;12.340;2023-11-22T14:42:01;0.40;99.90
2062;DHT22;11070;51.336;12.340;2023-11-22T14:44:27;0.30;99.90
2062;DHT22;11070;51.336;12.340;2023-11-22T14:46:52;0.30;99.90
2062;DHT22;11070;51.336;12.340;2023-11-22T14:49:19;0.30;99.90
2062;DHT22;11070;51.336;12.340;2023-11-22T14:51:46;0.40;99.90
2062;DHT22;11070;51.336;12.340;2023-11-22T14:54:12;0.40;99.90
2062;DHT22;11070;51.336;12.340;2023-11-22T14:56:38;0.40;99.90
2062;DHT22;11070;51.336;12.340;2023-11-22T14:59:05;0.40;99.90
2062;DHT22;11070;51.336;12.340;2023-11-22T15:01:31;0.40;99.90
2062;DHT22;11070;51.336;12.340;2023-11-22T15:03:57;0.50;99.90
2062;DHT22;11070;51.336;12.340;2023-11-22T15:06:23;0.60;99.90
2062;DHT22;11070;51.336;12.340;2023-11-22T15:08:49;0.40;99.90
2062;DHT22;11070;51.336;12.340;2023-11-22T15:11:16;0.50;99.90
2062;DHT22;11070;51.336;12.340;2023-11-22T15:13:46;0.40;99.90
2062;DHT22;11070;51.336;12.340;2023-11-22T15:16:12;0.40;99.90
2062;DHT22;11070;51.336;12.340;2023-11-22T15:18:40;0.40;99.90
2062;DHT22;11070;51.336;12.340;2023-11-22T15:21:06;0.40;99.90
2062;DHT22;11070;51.336;12.340;2023-11-22T15:23:31;0.50;99.90
2062;DHT22;11070;51.336;12.340;2023-11-22T15:25:57;0.30;99.90
2062;DHT22;11070;51.336;12.340;2023-11-22T15:28:25;0.30;99.90
2062;DHT22;11070;51.336;12.340;2023-11-22T15:30:51;0.30;99.90
2062;DHT22;11070;51.336;12.340;2023-11-22T15:33:24;0.30;99.90
2062;DHT22;11070;51.336;12.340;2023-11-22T15:35:50;0.30;99.90
2062;DHT22;11070;51.336;12.340;2023-11-22T15:38:16;0.30;99.90
2062;DHT22;11070;51.336;12.340;2023-11-22T15:40:41;0.30;99.90
2062;DHT22;11070;51.336;12.340;2023-11-22T15:43:08;0.40;99.90
2062;DHT22;11070;51.336;12.340;2023-11-22T15:45:34;0.30;99.90
2062;DHT22;11070;51.336;12.340;2023-11-22T15:48:05;0.30;99.90